<?xml version="1.0" encoding="UTF-8" standalone="no" ?>
<gpx xmlns="http://www.topografix.com/GPX/1/1" xmlns:xsi="http://www.w3.org/2001/XMLSchema-instance" xsi:schemaLocation="http://www.topografix.com/GPX/1/1 http://www.topografix.com/GPX/1/1/gpx.xsd" version="1.1" creator="VisuGPX - https://www.visugpx.com">
  <metadata>
    <name>RPM Gr 4 : LA BRAGUE - LE BRUGUET</name>
    <desc><![CDATA[Départ Valbonne, direction sud - remonter les escaliers - La Gonelle par la piste - descendre en direction du vallon du Bruguet - descendre la piste jusqu'à la Brague - retour à Valbonne par la piste - Visite de Valbonne et de l'abbaye.]]></desc>
  </metadata>
  <trk>
    <name><![CDATA[Randonnée du 27/01/2019 à 16:40]]></name>
    <trkseg>
      <trkpt lat="43.64058" lon="7.00866">
        <ele>186</ele>
        <time>2019-01-27T16:41:09+01:00</time>
      </trkpt>
      <trkpt lat="43.64002" lon="7.00853">
        <ele>180</ele>
        <time>2019-01-27T16:41:14+01:00</time>
      </trkpt>
      <trkpt lat="43.63887" lon="7.00874">
        <ele>209</ele>
        <time>2019-01-27T16:41:19+01:00</time>
      </trkpt>
      <trkpt lat="43.63741" lon="7.00801">
        <ele>216</ele>
        <time>2019-01-27T16:41:24+01:00</time>
      </trkpt>
      <trkpt lat="43.63685" lon="7.00775">
        <ele>213</ele>
        <time>2019-01-27T16:41:29+01:00</time>
      </trkpt>
      <trkpt lat="43.63576" lon="7.00707">
        <ele>222</ele>
        <time>2019-01-27T16:41:34+01:00</time>
      </trkpt>
      <trkpt lat="43.63511" lon="7.0084">
        <ele>240</ele>
        <time>2019-01-27T16:41:39+01:00</time>
      </trkpt>
      <trkpt lat="43.63527" lon="7.00891">
        <ele>241</ele>
        <time>2019-01-27T16:41:44+01:00</time>
      </trkpt>
      <trkpt lat="43.63505" lon="7.00891">
        <ele>247</ele>
        <time>2019-01-27T16:41:49+01:00</time>
      </trkpt>
      <trkpt lat="43.6344" lon="7.00994">
        <ele>260</ele>
        <time>2019-01-27T16:41:54+01:00</time>
      </trkpt>
      <trkpt lat="43.6352" lon="7.01278">
        <ele>262</ele>
        <time>2019-01-27T16:41:59+01:00</time>
      </trkpt>
      <trkpt lat="43.63542" lon="7.01355">
        <ele>264</ele>
        <time>2019-01-27T16:42:04+01:00</time>
      </trkpt>
      <trkpt lat="43.63564" lon="7.01557">
        <ele>254</ele>
        <time>2019-01-27T16:42:09+01:00</time>
      </trkpt>
      <trkpt lat="43.63586" lon="7.01642">
        <ele>252</ele>
        <time>2019-01-27T16:42:14+01:00</time>
      </trkpt>
      <trkpt lat="43.63579" lon="7.01698">
        <ele>250</ele>
        <time>2019-01-27T16:42:19+01:00</time>
      </trkpt>
      <trkpt lat="43.63586" lon="7.01891">
        <ele>244</ele>
        <time>2019-01-27T16:42:24+01:00</time>
      </trkpt>
      <trkpt lat="43.63576" lon="7.01986">
        <ele>244</ele>
        <time>2019-01-27T16:42:29+01:00</time>
      </trkpt>
      <trkpt lat="43.63595" lon="7.02033">
        <ele>244</ele>
        <time>2019-01-27T16:42:34+01:00</time>
      </trkpt>
      <trkpt lat="43.63595" lon="7.0208">
        <ele>244</ele>
        <time>2019-01-27T16:42:39+01:00</time>
      </trkpt>
      <trkpt lat="43.63629" lon="7.02132">
        <ele>241</ele>
        <time>2019-01-27T16:42:44+01:00</time>
      </trkpt>
      <trkpt lat="43.63629" lon="7.02183">
        <ele>242</ele>
        <time>2019-01-27T16:42:49+01:00</time>
      </trkpt>
      <trkpt lat="43.6353" lon="7.02187">
        <ele>243</ele>
        <time>2019-01-27T16:42:54+01:00</time>
      </trkpt>
      <trkpt lat="43.63412" lon="7.02226">
        <ele>235</ele>
        <time>2019-01-27T16:42:59+01:00</time>
      </trkpt>
      <trkpt lat="43.63353" lon="7.02385">
        <ele>226</ele>
        <time>2019-01-27T16:43:04+01:00</time>
      </trkpt>
      <trkpt lat="43.63353" lon="7.02411">
        <ele>224</ele>
        <time>2019-01-27T16:43:09+01:00</time>
      </trkpt>
      <trkpt lat="43.63381" lon="7.02441">
        <ele>222</ele>
        <time>2019-01-27T16:43:14+01:00</time>
      </trkpt>
      <trkpt lat="43.63421" lon="7.02445">
        <ele>220</ele>
        <time>2019-01-27T16:43:19+01:00</time>
      </trkpt>
      <trkpt lat="43.63427" lon="7.02483">
        <ele>217</ele>
        <time>2019-01-27T16:43:24+01:00</time>
      </trkpt>
      <trkpt lat="43.63415" lon="7.02505">
        <ele>218</ele>
        <time>2019-01-27T16:43:29+01:00</time>
      </trkpt>
      <trkpt lat="43.63418" lon="7.02522">
        <ele>218</ele>
        <time>2019-01-27T16:43:34+01:00</time>
      </trkpt>
      <trkpt lat="43.63433" lon="7.02617">
        <ele>214</ele>
        <time>2019-01-27T16:43:39+01:00</time>
      </trkpt>
      <trkpt lat="43.6343" lon="7.02677">
        <ele>212</ele>
        <time>2019-01-27T16:43:44+01:00</time>
      </trkpt>
      <trkpt lat="43.63384" lon="7.02784">
        <ele>217</ele>
        <time>2019-01-27T16:43:49+01:00</time>
      </trkpt>
      <trkpt lat="43.63418" lon="7.0293">
        <ele>222</ele>
        <time>2019-01-27T16:43:54+01:00</time>
      </trkpt>
      <trkpt lat="43.63418" lon="7.03106">
        <ele>219</ele>
        <time>2019-01-27T16:43:59+01:00</time>
      </trkpt>
      <trkpt lat="43.63384" lon="7.03192">
        <ele>217</ele>
        <time>2019-01-27T16:44:04+01:00</time>
      </trkpt>
      <trkpt lat="43.63238" lon="7.03307">
        <ele>211</ele>
        <time>2019-01-27T16:44:09+01:00</time>
      </trkpt>
      <trkpt lat="43.63197" lon="7.0326">
        <ele>208</ele>
        <time>2019-01-27T16:44:14+01:00</time>
      </trkpt>
      <trkpt lat="43.63185" lon="7.03355">
        <ele>198</ele>
        <time>2019-01-27T16:44:19+01:00</time>
      </trkpt>
      <trkpt lat="43.63204" lon="7.0338">
        <ele>200</ele>
        <time>2019-01-27T16:44:24+01:00</time>
      </trkpt>
      <trkpt lat="43.63228" lon="7.03432">
        <ele>196</ele>
        <time>2019-01-27T16:44:29+01:00</time>
      </trkpt>
      <trkpt lat="43.63269" lon="7.03458">
        <ele>193</ele>
        <time>2019-01-27T16:44:34+01:00</time>
      </trkpt>
      <trkpt lat="43.63275" lon="7.03513">
        <ele>187</ele>
        <time>2019-01-27T16:44:39+01:00</time>
      </trkpt>
      <trkpt lat="43.63325" lon="7.03599">
        <ele>179</ele>
        <time>2019-01-27T16:44:44+01:00</time>
      </trkpt>
      <trkpt lat="43.63399" lon="7.03647">
        <ele>168</ele>
        <time>2019-01-27T16:44:49+01:00</time>
      </trkpt>
      <trkpt lat="43.63542" lon="7.03535">
        <ele>156</ele>
        <time>2019-01-27T16:44:54+01:00</time>
      </trkpt>
      <trkpt lat="43.63567" lon="7.03466">
        <ele>156</ele>
        <time>2019-01-27T16:44:59+01:00</time>
      </trkpt>
      <trkpt lat="43.63583" lon="7.03544">
        <ele>144</ele>
        <time>2019-01-27T16:45:04+01:00</time>
      </trkpt>
      <trkpt lat="43.63573" lon="7.03599">
        <ele>141</ele>
        <time>2019-01-27T16:45:09+01:00</time>
      </trkpt>
      <trkpt lat="43.63595" lon="7.03599">
        <ele>143</ele>
        <time>2019-01-27T16:45:14+01:00</time>
      </trkpt>
      <trkpt lat="43.63558" lon="7.03604">
        <ele>141</ele>
        <time>2019-01-27T16:45:19+01:00</time>
      </trkpt>
      <trkpt lat="43.63576" lon="7.03548">
        <ele>145</ele>
        <time>2019-01-27T16:45:24+01:00</time>
      </trkpt>
      <trkpt lat="43.63576" lon="7.03471">
        <ele>151</ele>
        <time>2019-01-27T16:45:29+01:00</time>
      </trkpt>
      <trkpt lat="43.63433" lon="7.03647">
        <ele>164</ele>
        <time>2019-01-27T16:45:34+01:00</time>
      </trkpt>
      <trkpt lat="43.63362" lon="7.03621">
        <ele>174</ele>
        <time>2019-01-27T16:45:39+01:00</time>
      </trkpt>
      <trkpt lat="43.633" lon="7.03561">
        <ele>184</ele>
        <time>2019-01-27T16:45:44+01:00</time>
      </trkpt>
      <trkpt lat="43.63275" lon="7.03522">
        <ele>186</ele>
        <time>2019-01-27T16:45:49+01:00</time>
      </trkpt>
      <trkpt lat="43.63269" lon="7.03453">
        <ele>194</ele>
        <time>2019-01-27T16:45:54+01:00</time>
      </trkpt>
      <trkpt lat="43.63222" lon="7.03423">
        <ele>198</ele>
        <time>2019-01-27T16:45:59+01:00</time>
      </trkpt>
      <trkpt lat="43.63191" lon="7.03372">
        <ele>198</ele>
        <time>2019-01-27T16:46:04+01:00</time>
      </trkpt>
      <trkpt lat="43.63241" lon="7.03385">
        <ele>203</ele>
        <time>2019-01-27T16:46:09+01:00</time>
      </trkpt>
      <trkpt lat="43.63368" lon="7.03346">
        <ele>204</ele>
        <time>2019-01-27T16:46:14+01:00</time>
      </trkpt>
      <trkpt lat="43.63483" lon="7.03247">
        <ele>201</ele>
        <time>2019-01-27T16:46:19+01:00</time>
      </trkpt>
      <trkpt lat="43.63499" lon="7.03235">
        <ele>200</ele>
        <time>2019-01-27T16:46:24+01:00</time>
      </trkpt>
      <trkpt lat="43.6352" lon="7.03093">
        <ele>196</ele>
        <time>2019-01-27T16:46:29+01:00</time>
      </trkpt>
      <trkpt lat="43.6352" lon="7.02891">
        <ele>193</ele>
        <time>2019-01-27T16:46:34+01:00</time>
      </trkpt>
      <trkpt lat="43.63496" lon="7.02797">
        <ele>192</ele>
        <time>2019-01-27T16:46:39+01:00</time>
      </trkpt>
      <trkpt lat="43.63598" lon="7.02685">
        <ele>183</ele>
        <time>2019-01-27T16:46:44+01:00</time>
      </trkpt>
      <trkpt lat="43.63626" lon="7.02617">
        <ele>187</ele>
        <time>2019-01-27T16:46:49+01:00</time>
      </trkpt>
      <trkpt lat="43.63763" lon="7.02479">
        <ele>201</ele>
        <time>2019-01-27T16:46:54+01:00</time>
      </trkpt>
      <trkpt lat="43.63812" lon="7.02368">
        <ele>201</ele>
        <time>2019-01-27T16:46:59+01:00</time>
      </trkpt>
      <trkpt lat="43.63843" lon="7.02205">
        <ele>202</ele>
        <time>2019-01-27T16:47:04+01:00</time>
      </trkpt>
      <trkpt lat="43.63806" lon="7.02123">
        <ele>202</ele>
        <time>2019-01-27T16:47:09+01:00</time>
      </trkpt>
      <trkpt lat="43.63809" lon="7.0202">
        <ele>196</ele>
        <time>2019-01-27T16:47:14+01:00</time>
      </trkpt>
      <trkpt lat="43.63843" lon="7.01926">
        <ele>189</ele>
        <time>2019-01-27T16:47:19+01:00</time>
      </trkpt>
      <trkpt lat="43.63843" lon="7.01814">
        <ele>184</ele>
        <time>2019-01-27T16:47:24+01:00</time>
      </trkpt>
      <trkpt lat="43.63862" lon="7.01861">
        <ele>178</ele>
        <time>2019-01-27T16:47:29+01:00</time>
      </trkpt>
      <trkpt lat="43.63881" lon="7.01763">
        <ele>171</ele>
        <time>2019-01-27T16:47:34+01:00</time>
      </trkpt>
      <trkpt lat="43.63862" lon="7.01685">
        <ele>171</ele>
        <time>2019-01-27T16:47:39+01:00</time>
      </trkpt>
      <trkpt lat="43.63843" lon="7.01651">
        <ele>175</ele>
        <time>2019-01-27T16:47:44+01:00</time>
      </trkpt>
      <trkpt lat="43.6385" lon="7.01578">
        <ele>177</ele>
        <time>2019-01-27T16:47:49+01:00</time>
      </trkpt>
      <trkpt lat="43.63847" lon="7.01475">
        <ele>185</ele>
        <time>2019-01-27T16:47:54+01:00</time>
      </trkpt>
      <trkpt lat="43.63859" lon="7.01393">
        <ele>190</ele>
        <time>2019-01-27T16:47:59+01:00</time>
      </trkpt>
      <trkpt lat="43.63878" lon="7.0132">
        <ele>199</ele>
        <time>2019-01-27T16:48:04+01:00</time>
      </trkpt>
      <trkpt lat="43.63865" lon="7.01265">
        <ele>195</ele>
        <time>2019-01-27T16:48:09+01:00</time>
      </trkpt>
      <trkpt lat="43.63881" lon="7.01196">
        <ele>193</ele>
        <time>2019-01-27T16:48:14+01:00</time>
      </trkpt>
      <trkpt lat="43.64045" lon="7.00956">
        <ele>187</ele>
        <time>2019-01-27T16:48:19+01:00</time>
      </trkpt>
      <trkpt lat="43.64073" lon="7.00848">
        <ele>188</ele>
        <time>2019-01-27T16:48:24+01:00</time>
      </trkpt>
    </trkseg>
  </trk>
</gpx>